createdAt,value
2017-05-10T00:01:02.757Z,6.40
2017-05-10T00:03:30.327Z,6.40
2017-05-10T00:05:58.264Z,6.40
2017-05-10T00:08:25.821Z,6.40
2017-05-10T00:10:54.140Z,6.30
2017-05-10T00:13:22.084Z,6.30
2017-05-10T00:15:50.021Z,6.30
2017-05-10T00:18:18.152Z,6.20
2017-05-10T00:20:45.700Z,6.30
2017-05-10T00:23:13.631Z,6.20
2017-05-10T00:25:41.963Z,6.10
2017-05-10T00:28:09.512Z,6.10
2017-05-10T00:30:37.448Z,6.10
2017-05-10T00:33:05.018Z,6.10
2017-05-10T00:35:33.319Z,6.10
2017-05-10T00:38:01.252Z,6.10
2017-05-10T00:40:28.811Z,6.10
2017-05-10T00:42:57.115Z,6.00
2017-05-10T00:45:25.055Z,6.00
2017-05-10T00:47:53.010Z,6.00
2017-05-10T00:50:20.944Z,6.00
2017-05-10T00:52:48.880Z,6.00
2017-05-10T00:55:17.211Z,5.90
2017-05-10T00:57:45.148Z,5.90
2017-05-10T01:00:13.089Z,5.90
2017-05-10T01:02:40.648Z,5.90
2017-05-10T01:05:08.952Z,5.80
2017-05-10T01:07:36.884Z,5.80
2017-05-10T01:10:04.420Z,5.80
2017-05-10T01:12:32.763Z,5.80
2017-05-10T01:15:00.303Z,5.80
2017-05-10T01:17:28.652Z,5.80
2017-05-10T01:19:56.571Z,5.80
2017-05-10T01:22:24.514Z,5.80
2017-05-10T01:24:52.081Z,5.80
2017-05-10T01:27:20.379Z,5.80
2017-05-10T01:29:47.915Z,5.80
2017-05-10T01:32:16.264Z,5.90
2017-05-10T01:34:44.200Z,5.80
2017-05-10T01:37:12.136Z,5.90
2017-05-10T01:39:40.469Z,5.80
2017-05-10T01:42:08.404Z,5.80
2017-05-10T01:44:35.936Z,5.80
2017-05-10T01:47:03.496Z,5.70
2017-05-10T01:49:31.441Z,5.80
2017-05-10T01:51:59.459Z,5.80
2017-05-10T01:54:27.436Z,5.80
2017-05-10T01:56:54.973Z,5.80
2017-05-10T01:59:22.904Z,5.80
2017-05-10T02:01:50.860Z,5.80
2017-05-10T02:04:18.813Z,5.80
2017-05-10T02:06:46.744Z,5.90
2017-05-10T02:09:14.697Z,5.90
2017-05-10T02:11:42.627Z,5.90
2017-05-10T02:14:10.564Z,5.90
2017-05-10T02:16:38.889Z,5.80
2017-05-10T02:19:06.826Z,5.80
2017-05-10T02:21:34.360Z,5.80
2017-05-10T02:24:02.330Z,5.70
2017-05-10T02:26:30.264Z,5.70
2017-05-10T02:28:57.813Z,5.70
2017-05-10T02:31:25.780Z,5.70
2017-05-10T02:33:53.734Z,5.70
2017-05-10T02:36:21.659Z,5.70
2017-05-10T02:38:49.621Z,5.60
2017-05-10T02:41:17.560Z,5.60
2017-05-10T02:43:45.511Z,5.60
2017-05-10T02:46:13.889Z,5.60
2017-05-10T02:48:42.196Z,5.60
2017-05-10T02:51:10.131Z,5.50
2017-05-10T02:53:37.736Z,5.50
2017-05-10T02:56:05.656Z,5.50
2017-05-10T02:58:33.925Z,5.50
2017-05-10T03:01:01.924Z,5.40
2017-05-10T03:03:29.885Z,5.40
2017-05-10T03:05:57.819Z,5.40
2017-05-10T03:08:25.779Z,5.40
2017-05-10T03:10:53.717Z,5.40
2017-05-10T03:13:21.253Z,5.40
2017-05-10T03:15:49.896Z,5.40
2017-05-10T03:18:17.884Z,5.40
2017-05-10T03:20:45.429Z,5.40
2017-05-10T03:23:13.405Z,5.40
2017-05-10T03:25:41.336Z,5.40
2017-05-10T03:28:09.263Z,5.40
2017-05-10T03:30:37.242Z,5.30
2017-05-10T03:33:05.540Z,5.30
2017-05-10T03:35:33.085Z,5.30
2017-05-10T03:38:01.413Z,5.20
2017-05-10T03:40:29.347Z,5.20
2017-05-10T03:42:57.277Z,5.20
2017-05-10T03:45:25.240Z,5.20
2017-05-10T03:47:53.173Z,5.20
2017-05-10T03:50:21.113Z,5.20
2017-05-10T03:52:49.436Z,5.20
2017-05-10T03:55:17.367Z,5.20
2017-05-10T03:57:44.907Z,5.20
2017-05-10T04:00:12.863Z,5.20
2017-05-10T04:02:40.801Z,5.30
2017-05-10T04:05:08.727Z,5.30
2017-05-10T04:07:36.293Z,5.30
2017-05-10T04:10:04.236Z,5.20
2017-05-10T04:12:32.168Z,5.20
2017-05-10T04:14:59.728Z,5.20
2017-05-10T04:17:27.268Z,5.20
2017-05-10T04:19:55.207Z,5.20
2017-05-10T04:22:23.164Z,5.20
2017-05-10T04:24:50.710Z,5.20
2017-05-10T04:27:18.635Z,5.30
2017-05-10T04:29:46.203Z,5.30
2017-05-10T04:32:14.140Z,5.30
2017-05-10T04:34:42.084Z,5.40
2017-05-10T04:37:10.116Z,5.40
2017-05-10T04:39:38.076Z,5.40
2017-05-10T04:42:05.997Z,5.50
2017-05-10T04:44:33.961Z,5.50
2017-05-10T04:47:01.898Z,5.60
2017-05-10T04:49:29.828Z,5.70
2017-05-10T04:51:57.821Z,5.70
2017-05-10T04:54:26.124Z,5.90
2017-05-10T04:56:54.074Z,6.00
2017-05-10T04:59:21.636Z,6.00
2017-05-10T05:01:49.963Z,6.20
2017-05-10T05:04:17.896Z,6.20
2017-05-10T05:06:45.824Z,6.30
2017-05-10T05:09:13.784Z,6.40
2017-05-10T05:11:41.724Z,6.40
2017-05-10T05:14:09.265Z,6.40
2017-05-10T05:16:37.223Z,6.60
2017-05-10T05:19:04.760Z,6.60
2017-05-10T05:21:32.708Z,6.70
2017-05-10T05:24:00.671Z,6.70
2017-05-10T05:26:28.603Z,6.80
2017-05-10T05:28:56.536Z,6.90
2017-05-10T05:31:24.495Z,7.00
2017-05-10T05:33:52.452Z,7.00
2017-05-10T05:36:20.391Z,7.20
2017-05-10T05:38:48.366Z,7.30
2017-05-10T05:41:16.300Z,7.40
2017-05-10T05:43:44.607Z,7.40
2017-05-10T05:46:12.564Z,7.50
2017-05-10T05:48:40.113Z,7.60
2017-05-10T05:51:07.656Z,7.70
2017-05-10T05:53:35.962Z,7.90
2017-05-10T05:56:03.904Z,7.90
2017-05-10T05:58:31.848Z,8.00
2017-05-10T06:00:59.816Z,8.10
2017-05-10T06:03:27.756Z,8.10
2017-05-10T06:05:55.696Z,8.20
2017-05-10T06:08:24.118Z,8.20
2017-05-10T06:10:51.683Z,8.20
2017-05-10T06:13:19.640Z,8.40
2017-05-10T06:15:47.605Z,8.50
2017-05-10T06:18:15.148Z,8.50
2017-05-10T06:20:43.484Z,8.70
2017-05-10T06:23:11.404Z,8.80
2017-05-10T06:25:39.340Z,8.80
2017-05-10T06:28:07.296Z,8.90
2017-05-10T06:30:35.233Z,9.00
2017-05-10T06:33:03.159Z,9.00
2017-05-10T06:35:31.129Z,9.00
2017-05-10T06:37:59.058Z,9.10
2017-05-10T06:40:26.985Z,9.20
2017-05-10T06:42:54.548Z,9.20
2017-05-10T06:45:22.084Z,9.20
2017-05-10T06:47:50.020Z,9.30
2017-05-10T06:50:17.975Z,9.40
2017-05-10T06:52:45.904Z,9.50
2017-05-10T06:55:14.203Z,9.60
2017-05-10T06:57:42.160Z,9.60
2017-05-10T07:00:10.465Z,9.70
2017-05-10T07:02:38.397Z,9.80
2017-05-10T07:05:06.346Z,9.90
2017-05-10T07:07:34.283Z,10.00
2017-05-10T07:10:02.243Z,10.10
2017-05-10T07:12:30.181Z,10.20
2017-05-10T07:14:57.728Z,10.20
2017-05-10T07:17:25.680Z,10.30
2017-05-10T07:19:53.631Z,10.40
2017-05-10T07:22:21.177Z,10.40
2017-05-10T07:24:49.131Z,10.60
2017-05-10T07:27:17.072Z,10.60
2017-05-10T07:29:45.008Z,10.70
2017-05-10T07:32:12.968Z,10.70
2017-05-10T07:34:40.904Z,10.90
2017-05-10T07:37:08.439Z,10.90
2017-05-10T07:39:36.410Z,11.00
2017-05-10T07:42:04.336Z,11.10
2017-05-10T07:44:32.228Z,11.20
2017-05-10T07:47:00.600Z,11.30
2017-05-10T07:49:28.536Z,11.40
2017-05-10T07:51:56.472Z,11.50
2017-05-10T07:54:24.427Z,11.70
2017-05-10T07:56:51.976Z,11.70
2017-05-10T07:59:19.957Z,11.90
2017-05-10T08:01:47.924Z,11.90
2017-05-10T08:04:15.860Z,11.90
2017-05-10T08:06:43.399Z,11.90
2017-05-10T08:09:10.963Z,12.00
2017-05-10T08:11:38.508Z,12.10
2017-05-10T08:14:06.053Z,12.30
2017-05-10T08:16:34.009Z,12.50
2017-05-10T08:19:01.944Z,12.50
2017-05-10T08:21:29.887Z,12.50
2017-05-10T08:23:58.226Z,12.50
2017-05-10T08:26:26.168Z,12.70
2017-05-10T08:28:53.715Z,12.70
2017-05-10T08:31:21.276Z,12.90
2017-05-10T08:33:49.240Z,13.00
2017-05-10T08:36:17.176Z,13.10
2017-05-10T08:38:45.149Z,13.30
2017-05-10T08:41:12.711Z,13.30
2017-05-10T08:43:40.655Z,13.60
2017-05-10T08:46:08.593Z,13.60
2017-05-10T08:48:36.156Z,13.60
2017-05-10T08:51:04.108Z,13.60
2017-05-10T08:53:32.044Z,13.60
2017-05-10T08:56:00.003Z,13.70
2017-05-10T08:58:27.959Z,13.90
2017-05-10T09:00:55.901Z,14.00
2017-05-10T09:03:23.859Z,14.10
2017-05-10T09:05:51.795Z,14.20
2017-05-10T09:08:19.359Z,14.20
2017-05-10T09:10:46.901Z,14.10
2017-05-10T09:13:14.840Z,14.30
2017-05-10T09:15:42.800Z,14.30
2017-05-10T09:18:10.738Z,14.40
2017-05-10T09:20:38.671Z,14.60
2017-05-10T09:23:06.640Z,14.70
2017-05-10T09:25:34.572Z,14.70
2017-05-10T09:28:02.503Z,14.70
2017-05-10T09:30:30.467Z,14.90
2017-05-10T09:32:58.408Z,15.00
2017-05-10T09:35:26.341Z,15.20
2017-05-10T09:37:54.672Z,15.30
2017-05-10T09:40:22.607Z,15.30
2017-05-10T09:42:50.144Z,15.30
2017-05-10T09:45:18.480Z,15.20
2017-05-10T09:47:46.416Z,15.20
2017-05-10T09:50:14.348Z,15.30
2017-05-10T09:52:42.681Z,15.50
2017-05-10T09:55:10.217Z,15.50
2017-05-10T09:57:38.151Z,15.70
2017-05-10T10:00:06.116Z,15.80
2017-05-10T10:02:34.049Z,15.80
2017-05-10T10:05:01.982Z,15.80
2017-05-10T10:07:30.415Z,15.90
2017-05-10T10:09:58.343Z,16.00
2017-05-10T10:12:25.893Z,15.90
2017-05-10T10:14:53.438Z,16.10
2017-05-10T10:17:21.367Z,16.30
2017-05-10T10:19:49.299Z,16.30
2017-05-10T10:22:17.257Z,16.40
2017-05-10T10:24:45.564Z,16.50
2017-05-10T10:27:13.529Z,16.40
2017-05-10T10:29:41.892Z,16.40
2017-05-10T10:32:10.191Z,16.50
2017-05-10T10:34:38.115Z,16.60
2017-05-10T10:37:06.085Z,16.70
2017-05-10T10:39:34.016Z,16.70
2017-05-10T10:42:01.943Z,16.70
2017-05-10T10:44:30.267Z,16.80
2017-05-10T10:46:58.201Z,16.70
2017-05-10T10:49:25.735Z,16.70
2017-05-10T10:51:53.687Z,16.80
2017-05-10T10:54:21.615Z,16.90
2017-05-10T10:56:49.516Z,16.90
2017-05-10T10:59:17.508Z,17.10
2017-05-10T11:01:45.466Z,16.80
2017-05-10T11:04:13.393Z,16.70
2017-05-10T11:06:41.345Z,16.90
2017-05-10T11:09:09.654Z,16.90
2017-05-10T11:11:37.583Z,17.00
2017-05-10T11:14:05.923Z,17.00
2017-05-10T11:16:33.847Z,16.90
2017-05-10T11:19:01.780Z,16.90
2017-05-10T11:21:29.731Z,16.90
2017-05-10T11:23:57.664Z,16.90
2017-05-10T11:26:25.621Z,16.80
2017-05-10T11:28:53.584Z,16.90
2017-05-10T11:31:21.884Z,17.10
2017-05-10T11:33:49.808Z,17.10
2017-05-10T11:36:17.768Z,17.10
2017-05-10T11:38:45.695Z,17.10
2017-05-10T11:41:13.621Z,17.00
2017-05-10T11:43:41.571Z,17.00
2017-05-10T11:46:09.504Z,17.10
2017-05-10T11:48:37.440Z,17.20
2017-05-10T11:51:05.617Z,17.10
2017-05-10T11:53:33.172Z,17.20
2017-05-10T11:56:01.104Z,17.20
2017-05-10T11:58:29.060Z,17.30
2017-05-10T12:00:56.594Z,17.30
2017-05-10T12:03:24.891Z,17.30
2017-05-10T12:05:52.952Z,17.30
2017-05-10T12:08:21.236Z,17.60
2017-05-10T12:10:49.166Z,17.50
2017-05-10T12:13:17.125Z,17.40
2017-05-10T12:15:45.057Z,17.30
2017-05-10T12:18:12.982Z,17.10
2017-05-10T12:20:40.930Z,17.10
2017-05-10T12:23:08.864Z,17.30
2017-05-10T12:25:36.405Z,17.30
2017-05-10T12:28:04.352Z,17.50
2017-05-10T12:30:32.275Z,17.50
2017-05-10T12:33:00.209Z,17.70
2017-05-10T12:35:28.531Z,17.80
2017-05-10T12:37:56.055Z,17.80
2017-05-10T12:40:23.988Z,17.70
2017-05-10T12:42:51.936Z,17.70
2017-05-10T12:45:19.868Z,17.70
2017-05-10T12:47:47.796Z,17.80
2017-05-10T12:50:15.752Z,17.80
2017-05-10T12:52:43.679Z,17.90
2017-05-10T12:55:11.608Z,17.90
2017-05-10T12:57:39.564Z,18.00
2017-05-10T13:00:07.489Z,18.00
2017-05-10T13:02:35.432Z,18.00
2017-05-10T13:05:03.756Z,18.10
2017-05-10T13:07:31.295Z,18.10
2017-05-10T13:09:59.219Z,18.30
2017-05-10T13:12:27.176Z,18.40
2017-05-10T13:14:55.103Z,18.60
2017-05-10T13:17:23.031Z,18.60
2017-05-10T13:19:50.988Z,18.70
2017-05-10T13:22:18.909Z,18.70
2017-05-10T13:24:46.434Z,18.70
2017-05-10T13:27:14.397Z,18.80
2017-05-10T13:29:42.323Z,18.80
2017-05-10T13:32:10.252Z,18.70
2017-05-10T13:34:38.215Z,18.80
2017-05-10T13:37:06.140Z,18.80
2017-05-10T13:39:34.072Z,18.80
2017-05-10T13:42:01.647Z,18.80
2017-05-10T13:44:29.945Z,18.70
2017-05-10T13:46:57.864Z,18.90
2017-05-10T13:49:25.822Z,19.10
2017-05-10T13:51:53.745Z,19.20
2017-05-10T13:54:21.284Z,19.20
2017-05-10T13:56:49.607Z,19.20
2017-05-10T13:59:17.527Z,19.20
2017-05-10T14:01:45.828Z,19.20
2017-05-10T14:04:13.790Z,19.20
2017-05-10T14:06:41.332Z,19.20
2017-05-10T14:09:09.263Z,19.40
2017-05-10T14:11:37.212Z,19.50
2017-05-10T14:14:04.754Z,19.50
2017-05-10T14:16:32.695Z,19.60
2017-05-10T14:19:00.703Z,19.50
2017-05-10T14:21:28.640Z,19.50
2017-05-10T14:23:56.563Z,19.60
2017-05-10T14:26:24.515Z,19.70
2017-05-10T14:28:52.463Z,19.70
2017-05-10T14:31:20.777Z,19.80
2017-05-10T14:33:48.723Z,19.90
2017-05-10T14:36:16.660Z,20.10
2017-05-10T14:38:44.602Z,20.20
2017-05-10T14:41:12.553Z,20.20
2017-05-10T14:43:40.489Z,20.20
2017-05-10T14:46:08.784Z,20.30
2017-05-10T14:48:36.746Z,20.20
2017-05-10T14:51:04.697Z,20.30
2017-05-10T14:53:32.800Z,20.30
2017-05-10T14:56:01.127Z,20.40
2017-05-10T14:58:29.056Z,20.50
2017-05-10T15:00:56.987Z,20.50
2017-05-10T15:03:24.957Z,20.50
2017-05-10T15:05:52.879Z,20.70
2017-05-10T15:08:20.411Z,20.70
2017-05-10T15:10:48.364Z,20.90
2017-05-10T15:13:16.308Z,21.00
2017-05-10T15:15:44.236Z,21.00
2017-05-10T15:18:12.188Z,21.00
2017-05-10T15:20:39.720Z,21.00
2017-05-10T15:23:07.650Z,21.20
2017-05-10T15:25:35.596Z,21.30
2017-05-10T15:28:03.522Z,21.30
2017-05-10T15:30:31.448Z,21.30
2017-05-10T15:32:59.404Z,21.30
2017-05-10T15:35:27.328Z,21.30
2017-05-10T15:37:55.280Z,21.30
2017-05-10T15:40:22.840Z,21.30
2017-05-10T15:42:50.769Z,21.60
2017-05-10T15:45:19.067Z,21.70
2017-05-10T15:47:47.023Z,21.60
2017-05-10T15:50:14.976Z,21.50
2017-05-10T15:52:42.975Z,21.40
2017-05-10T15:55:10.920Z,21.90
2017-05-10T15:57:39.219Z,22.10
2017-05-10T16:00:07.147Z,24.60
2017-05-10T16:02:35.109Z,29.10
2017-05-10T16:05:03.037Z,32.00
2017-05-10T16:07:31.191Z,33.50
2017-05-10T16:09:59.507Z,34.40
2017-05-10T16:12:27.464Z,34.70
2017-05-10T16:14:55.420Z,32.50
2017-05-10T16:17:23.377Z,28.80
2017-05-10T16:19:51.320Z,27.10
2017-05-10T16:22:19.229Z,27.10
2017-05-10T16:24:47.200Z,23.50
2017-05-10T16:27:14.765Z,23.50
2017-05-10T16:29:43.039Z,22.60
2017-05-10T16:32:11.441Z,22.30
2017-05-10T16:34:39.384Z,22.00
2017-05-10T16:37:07.341Z,21.80
2017-05-10T16:39:35.646Z,23.20
2017-05-10T16:42:03.572Z,23.90
2017-05-10T16:44:31.520Z,24.10
2017-05-10T16:46:59.448Z,25.20
2017-05-10T16:49:27.388Z,24.90
2017-05-10T16:51:55.689Z,24.30
2017-05-10T16:54:23.223Z,24.30
2017-05-10T16:56:51.548Z,27.90
2017-05-10T16:59:19.473Z,29.20
2017-05-10T17:01:47.769Z,26.90
2017-05-10T17:04:15.738Z,24.70
2017-05-10T17:06:44.067Z,23.70
2017-05-10T17:09:12.021Z,23.30
2017-05-10T17:11:39.966Z,22.80
2017-05-10T17:14:07.916Z,22.10
2017-05-10T17:16:36.247Z,21.10
2017-05-10T17:19:04.340Z,20.30
2017-05-10T17:21:32.458Z,19.80
2017-05-10T17:24:00.687Z,19.40
2017-05-10T17:26:29.408Z,19.10
2017-05-10T17:28:57.700Z,18.90
2017-05-10T17:31:25.679Z,18.70
2017-05-10T17:33:53.215Z,18.70
2017-05-10T17:36:21.530Z,18.40
2017-05-10T17:38:49.100Z,18.40
2017-05-10T17:41:16.661Z,18.30
2017-05-10T17:43:44.587Z,18.20
2017-05-10T17:46:13.096Z,18.10
2017-05-10T17:48:41.031Z,18.00
2017-05-10T17:51:09.344Z,17.90
2017-05-10T17:53:37.319Z,17.80
2017-05-10T17:56:05.264Z,17.80
2017-05-10T17:58:33.664Z,17.70
2017-05-10T18:01:01.763Z,17.70
2017-05-10T18:03:29.781Z,17.60
2017-05-10T18:05:58.472Z,17.60
2017-05-10T18:08:26.650Z,17.50
2017-05-10T18:10:54.815Z,17.40
2017-05-10T18:13:23.518Z,17.40
2017-05-10T18:15:51.976Z,17.30
2017-05-10T18:18:20.574Z,17.20
2017-05-10T18:20:48.716Z,17.20
2017-05-10T18:23:17.650Z,17.10
2017-05-10T18:25:46.598Z,17.00
2017-05-10T18:28:15.512Z,16.90
2017-05-10T18:30:44.573Z,16.90
2017-05-10T18:33:13.506Z,16.80
2017-05-10T18:35:42.471Z,16.80
2017-05-10T18:38:11.639Z,16.70
2017-05-10T18:40:41.742Z,16.60
2017-05-10T18:43:10.688Z,16.50
2017-05-10T18:45:39.697Z,16.40
2017-05-10T18:48:08.243Z,16.40
2017-05-10T18:50:38.082Z,16.20
2017-05-10T18:53:07.177Z,16.10
2017-05-10T18:55:36.137Z,16.00
2017-05-10T18:58:05.509Z,16.00
2017-05-10T19:00:35.135Z,15.90
2017-05-10T19:03:04.381Z,15.80
2017-05-10T19:05:33.608Z,15.80
2017-05-10T19:08:02.698Z,15.70
2017-05-10T19:10:31.632Z,15.60
2017-05-10T19:13:01.021Z,15.60
2017-05-10T19:15:29.976Z,15.40
2017-05-10T19:17:58.553Z,15.40
2017-05-10T19:20:27.644Z,15.20
2017-05-10T19:22:56.624Z,15.00
2017-05-10T19:25:25.592Z,14.90
2017-05-10T19:27:54.253Z,14.90
2017-05-10T19:30:23.229Z,14.80
2017-05-10T19:32:53.400Z,14.70
2017-05-10T19:35:22.205Z,14.70
2017-05-10T19:37:51.517Z,14.60
2017-05-10T19:40:20.804Z,14.60
2017-05-10T19:42:50.455Z,14.50
2017-05-10T19:45:19.003Z,14.60
2017-05-10T19:47:48.468Z,14.40
2017-05-10T19:50:17.420Z,14.40
2017-05-10T19:52:46.395Z,14.20
2017-05-10T19:55:15.420Z,14.20
2017-05-10T19:57:44.816Z,14.10
2017-05-10T20:00:13.762Z,14.20
2017-05-10T20:02:43.084Z,14.10
2017-05-10T20:05:12.678Z,14.00
2017-05-10T20:07:41.247Z,14.00
2017-05-10T20:10:10.194Z,13.80
2017-05-10T20:12:39.255Z,13.80
2017-05-10T20:15:08.285Z,13.70
2017-05-10T20:17:36.878Z,13.70
2017-05-10T20:20:05.930Z,13.60
2017-05-10T20:22:34.863Z,13.50
2017-05-10T20:25:03.435Z,13.50
2017-05-10T20:27:32.514Z,13.50
2017-05-10T20:30:03.861Z,13.60
2017-05-10T20:32:32.936Z,13.50
2017-05-10T20:35:01.910Z,13.40
2017-05-10T20:37:30.858Z,13.30
2017-05-10T20:40:00.401Z,13.20
2017-05-10T20:42:29.306Z,13.10
2017-05-10T20:44:58.196Z,13.10
2017-05-10T20:47:27.779Z,13.00
2017-05-10T20:49:56.599Z,13.00
2017-05-10T20:52:25.642Z,12.90
2017-05-10T20:54:54.662Z,12.80
2017-05-10T20:57:23.024Z,12.80
2017-05-10T20:59:51.627Z,12.70
2017-05-10T21:02:20.779Z,12.70
2017-05-10T21:04:49.131Z,12.60
2017-05-10T21:07:17.808Z,12.60
2017-05-10T21:09:46.342Z,12.50
2017-05-10T21:12:14.335Z,12.40
2017-05-10T21:14:42.313Z,12.30
2017-05-10T21:17:10.352Z,12.30
2017-05-10T21:19:38.350Z,12.30
2017-05-10T21:22:05.939Z,12.30
2017-05-10T21:24:33.906Z,12.20
2017-05-10T21:27:01.719Z,12.20
2017-05-10T21:29:29.665Z,12.10
2017-05-10T21:31:57.237Z,12.10
2017-05-10T21:34:25.536Z,12.10
2017-05-10T21:36:53.477Z,12.00
2017-05-10T21:39:21.809Z,12.00
2017-05-10T21:41:49.752Z,12.00
2017-05-10T21:44:17.697Z,12.00
2017-05-10T21:46:46.037Z,12.00
2017-05-10T21:49:13.976Z,11.90
2017-05-10T21:51:41.904Z,11.80
2017-05-10T21:54:10.237Z,11.80
2017-05-10T21:56:38.173Z,11.70
2017-05-10T21:59:06.107Z,11.70
2017-05-10T22:01:34.078Z,11.60
2017-05-10T22:04:02.012Z,11.60
2017-05-10T22:06:29.944Z,11.60
2017-05-10T22:08:58.277Z,11.60
2017-05-10T22:11:26.207Z,11.60
2017-05-10T22:13:54.135Z,11.70
2017-05-10T22:16:21.707Z,11.70
2017-05-10T22:18:49.649Z,11.80
2017-05-10T22:21:17.580Z,11.80
2017-05-10T22:23:45.548Z,11.80
2017-05-10T22:26:13.084Z,11.90
2017-05-10T22:28:41.394Z,11.90
2017-05-10T22:31:09.350Z,11.90
2017-05-10T22:33:37.283Z,11.90
2017-05-10T22:36:05.213Z,12.00
2017-05-10T22:38:33.176Z,12.00
2017-05-10T22:41:01.107Z,12.00
2017-05-10T22:43:29.417Z,12.10
2017-05-10T22:45:56.984Z,12.10
2017-05-10T22:48:24.915Z,12.00
2017-05-10T22:50:52.852Z,12.00
2017-05-10T22:53:20.805Z,11.90
2017-05-10T22:55:48.737Z,11.90
2017-05-10T22:58:17.065Z,11.90
2017-05-10T23:00:45.020Z,11.90
2017-05-10T23:03:12.563Z,11.90
2017-05-10T23:05:40.540Z,11.80
2017-05-10T23:08:08.474Z,11.80
2017-05-10T23:10:36.417Z,11.80
2017-05-10T23:13:04.375Z,11.70
2017-05-10T23:15:32.306Z,11.70
2017-05-10T23:18:00.244Z,11.70
2017-05-10T23:20:27.812Z,11.80
2017-05-10T23:22:55.348Z,11.70
2017-05-10T23:25:23.289Z,11.70
2017-05-10T23:27:51.248Z,11.60
2017-05-10T23:30:19.183Z,11.60
2017-05-10T23:32:47.124Z,11.60
2017-05-10T23:35:15.078Z,11.60
2017-05-10T23:37:43.017Z,11.60
2017-05-10T23:40:10.955Z,11.60
2017-05-10T23:42:38.907Z,11.60
2017-05-10T23:45:06.857Z,11.60
2017-05-10T23:47:34.400Z,11.60
2017-05-10T23:50:02.357Z,11.50
2017-05-10T23:52:30.291Z,11.50
2017-05-10T23:54:58.236Z,11.50
2017-05-10T23:57:26.203Z,11.40
2017-05-10T23:59:54.141Z,11.30
